Time;durP1;ratioP1;P1;durP2;ratioP2;P2;SDS_P1;SDS_P2;PMS_P1;PMS_P2;Temp;Humidity;BMP_temperature;BMP_pressure;BME280_temperature;BME280_humidity;BME280_pressure;Samples;Min_cycle;Max_cycle;Signal;HPM_P1;HPM_P2
2023/07/20 00:00:57;;;;;;;5.78;1.70;;;21.30;83.90;;;;;;5031882;28;20217;-56
2023/07/20 00:03:25;;;;;;;2.55;1.70;;;21.30;84.10;;;;;;5031861;28;20233;-58
2023/07/20 00:05:51;;;;;;;2.67;1.90;;;21.30;84.40;;;;;;5031769;28;20735;-56
2023/07/20 00:08:19;;;;;;;8.77;2.10;;;21.30;84.70;;;;;;5031873;28;20206;-57
2023/07/20 00:10:47;;;;;;;4.68;1.83;;;21.20;85.20;;;;;;5031565;28;20575;-56
2023/07/20 00:13:15;;;;;;;3.15;1.90;;;21.10;85.50;;;;;;5031817;28;20230;-57
2023/07/20 00:15:42;;;;;;;5.93;2.03;;;21.00;86.10;;;;;;5031658;28;20202;-56
2023/07/20 00:18:09;;;;;;;2.10;1.80;;;21.00;86.90;;;;;;5031507;28;20245;-57
2023/07/20 00:20:35;;;;;;;2.33;1.80;;;20.90;87.40;;;;;;5031638;28;20206;-56
2023/07/20 00:23:02;;;;;;;4.25;1.88;;;20.80;87.40;;;;;;5031934;28;20878;-58
2023/07/20 00:25:29;;;;;;;2.88;1.75;;;20.70;87.90;;;;;;5031574;28;20210;-58
2023/07/20 00:27:57;;;;;;;2.95;1.90;;;20.70;88.50;;;;;;5031455;28;20289;-57
2023/07/20 00:30:24;;;;;;;3.35;1.70;;;20.60;88.80;;;;;;5031523;28;20222;-57
2023/07/20 00:32:50;;;;;;;5.10;2.03;;;20.60;89.10;;;;;;5031171;28;20541;-56
2023/07/20 00:35:17;;;;;;;3.63;1.85;;;20.50;89.60;;;;;;5031419;28;20213;-57
2023/07/20 00:37:44;;;;;;;4.78;1.75;;;20.50;90.00;;;;;;5030970;28;20210;-57
2023/07/20 00:40:11;;;;;;;4.43;1.85;;;20.40;90.00;;;;;;5031410;28;20234;-58
2023/07/20 00:42:38;;;;;;;3.28;1.70;;;20.40;90.10;;;;;;5031575;28;20236;-56
2023/07/20 00:45:07;;;;;;;3.05;2.00;;;20.30;90.20;;;;;;5031588;28;20214;-56
2023/07/20 00:47:34;;;;;;;2.35;1.77;;;20.30;90.40;;;;;;5031156;28;20301;-57
2023/07/20 00:50:01;;;;;;;3.00;1.70;;;20.20;90.50;;;;;;5031293;28;20230;-57
2023/07/20 00:52:29;;;;;;;3.00;1.52;;;20.20;90.80;;;;;;5031095;28;20237;-58
2023/07/20 00:54:56;;;;;;;2.22;1.60;;;20.10;90.90;;;;;;5031210;28;20207;-58
2023/07/20 00:57:25;;;;;;;3.63;1.80;;;20.00;90.90;;;;;;5030926;28;20213;-58
2023/07/20 00:59:51;;;;;;;2.95;1.65;;;20.00;91.20;;;;;;5031024;28;20202;-58
2023/07/20 01:02:19;;;;;;;2.70;1.85;;;19.90;91.30;;;;;;5030883;28;20210;-57
2023/07/20 01:04:46;;;;;;;2.70;1.83;;;19.90;91.40;;;;;;5031078;28;20202;-58
2023/07/20 01:07:18;;;;;;;3.40;1.95;;;19.90;91.80;;;;;;5030519;28;20202;-58
2023/07/20 01:09:49;;;;;;;5.28;1.90;;;19.80;91.60;;;;;;5031172;28;20222;-57
2023/07/20 01:12:23;;;;;;;2.42;1.60;;;19.80;91.80;;;;;;5030884;28;20583;-58
2023/07/20 01:14:51;;;;;;;4.57;1.80;;;19.70;91.90;;;;;;5030859;28;20206;-57
2023/07/20 01:17:19;;;;;;;2.60;1.80;;;19.70;92.10;;;;;;5030810;28;20242;-58
2023/07/20 01:19:45;;;;;;;3.95;1.63;;;19.70;92.40;;;;;;5031010;28;20272;-56
2023/07/20 01:22:28;;;;;;;3.67;1.65;;;19.60;92.50;;;;;;5030850;28;20206;-58
2023/07/20 01:25:16;;;;;;;2.85;1.70;;;19.50;92.70;;;;;;5031018;28;20206;-57
2023/07/20 01:28:15;;;;;;;2.67;1.67;;;19.50;92.80;;;;;;5030766;28;20299;-57
2023/07/20 01:30:54;;;;;;;2.88;1.63;;;19.40;93.00;;;;;;5015531;28;20253;-58
2023/07/20 01:33:25;;;;;;;3.15;1.77;;;19.40;93.00;;;;;;5031061;28;20222;-57
2023/07/20 01:35:55;;;;;;;3.88;1.92;;;19.40;93.30;;;;;;5030655;28;20652;-58
2023/07/20 01:38:23;;;;;;;2.63;1.70;;;19.30;93.40;;;;;;5030726;28;20310;-56
2023/07/20 01:40:50;;;;;;;3.17;1.77;;;19.30;93.40;;;;;;5030611;28;20211;-57
2023/07/20 01:43:17;;;;;;;2.58;1.92;;;19.20;93.60;;;;;;5030801;28;20718;-57
2023/07/20 01:45:44;;;;;;;6.80;1.92;;;19.20;93.70;;;;;;5032767;28;20297;-57
2023/07/20 01:48:11;;;;;;;4.10;1.85;;;19.20;93.80;;;;;;5034615;28;20202;-58
2023/07/20 01:50:39;;;;;;;3.00;2.00;;;19.10;93.90;;;;;;5034412;28;20218;-57
2023/07/20 01:53:06;;;;;;;2.10;1.60;;;19.10;94.20;;;;;;5034232;28;20242;-58
2023/07/20 01:55:33;;;;;;;2.28;1.50;;;19.00;94.20;;;;;;5034430;28;20276;-58
2023/07/20 01:58:01;;;;;;;4.53;1.80;;;19.00;94.30;;;;;;5034576;28;20303;-57
2023/07/20 02:00:28;;;;;;;2.55;1.58;;;19.00;94.50;;;;;;5035302;28;20671;-57
2023/07/20 02:02:55;;;;;;;4.30;1.65;;;18.90;94.60;;;;;;5035682;28;20714;-57
2023/07/20 02:05:21;;;;;;;3.13;1.83;;;18.90;94.80;;;;;;5034772;28;20210;-57
2023/07/20 02:07:49;;;;;;;3.08;1.73;;;18.90;95.00;;;;;;5034254;28;20230;-57
2023/07/20 02:10:17;;;;;;;2.58;1.63;;;18.80;95.10;;;;;;5034148;28;20230;-57
2023/07/20 02:12:43;;;;;;;3.58;1.70;;;18.80;95.30;;;;;;5034202;28;20237;-58
2023/07/20 02:15:11;;;;;;;3.63;1.50;;;18.80;95.40;;;;;;5033905;28;20217;-57
2023/07/20 02:17:37;;;;;;;2.30;1.63;;;18.70;95.70;;;;;;5033566;28;20210;-57
2023/07/20 02:20:08;;;;;;;5.00;1.73;;;18.70;95.90;;;;;;5033739;28;20203;-57
2023/07/20 02:22:35;;;;;;;2.47;1.58;;;18.60;95.90;;;;;;5034095;28;20238;-57
2023/07/20 02:25:03;;;;;;;2.30;1.60;;;18.60;96.00;;;;;;5033765;28;20689;-57
2023/07/20 02:27:30;;;;;;;1.83;1.42;;;18.60;96.10;;;;;;5033460;28;20203;-57
2023/07/20 02:29:57;;;;;;;4.35;1.52;;;18.60;96.60;;;;;;5033419;28;20229;-57
2023/07/20 02:32:24;;;;;;;2.83;1.40;;;18.60;96.50;;;;;;5033497;28;20239;-58
2023/07/20 02:34:51;;;;;;;3.20;1.40;;;18.50;96.70;;;;;;5033757;28;20217;-57
2023/07/20 02:37:17;;;;;;;3.30;1.85;;;18.40;96.80;;;;;;5033474;28;20233;-57
2023/07/20 02:39:44;;;;;;;2.95;1.58;;;18.40;96.90;;;;;;5033715;28;20202;-57
2023/07/20 02:42:13;;;;;;;2.75;1.60;;;18.40;97.30;;;;;;5033331;28;20213;-57
2023/07/20 02:44:39;;;;;;;3.78;1.85;;;18.40;97.30;;;;;;5033337;28;20218;-57
2023/07/20 02:47:07;;;;;;;4.70;1.75;;;18.30;97.60;;;;;;5033668;28;20207;-58
2023/07/20 02:49:33;;;;;;;4.90;1.90;;;18.30;97.80;;;;;;5033341;28;20593;-56
2023/07/20 02:52:00;;;;;;;4.80;2.08;;;18.30;98.00;;;;;;5033184;28;20214;-58
2023/07/20 02:54:27;;;;;;;2.85;1.73;;;18.30;98.10;;;;;;5033128;28;20358;-57
2023/07/20 02:56:55;;;;;;;4.43;1.52;;;18.30;98.20;;;;;;5032872;28;20624;-56
2023/07/20 02:59:23;;;;;;;2.53;1.63;;;18.30;98.30;;;;;;5033009;28;20210;-57
2023/07/20 03:01:49;;;;;;;3.70;1.75;;;18.30;98.50;;;;;;5033106;28;20699;-57
2023/07/20 03:04:17;;;;;;;2.33;1.70;;;18.30;98.70;;;;;;5033046;28;20226;-57
2023/07/20 03:06:44;;;;;;;4.18;1.60;;;18.30;99.00;;;;;;5032557;28;20663;-57
2023/07/20 03:09:10;;;;;;;3.80;2.13;;;18.20;99.10;;;;;;5033388;28;20202;-58
2023/07/20 03:11:37;;;;;;;2.83;1.90;;;18.30;99.20;;;;;;5032962;28;20221;-57
2023/07/20 03:14:04;;;;;;;3.42;1.63;;;18.20;99.40;;;;;;5032519;28;20772;-57
2023/07/20 03:16:33;;;;;;;3.75;1.75;;;18.20;99.60;;;;;;5032540;28;20628;-57
2023/07/20 03:19:00;;;;;;;3.42;1.90;;;18.20;99.70;;;;;;5032819;28;20234;-57
2023/07/20 03:21:27;;;;;;;4.32;2.00;;;18.20;99.90;;;;;;5032738;28;20233;-58
2023/07/20 03:23:53;;;;;;;2.63;1.70;;;18.20;99.90;;;;;;5032481;28;20256;-57
2023/07/20 03:26:20;;;;;;;2.80;1.83;;;18.10;99.90;;;;;;5032251;28;20213;-57
2023/07/20 03:28:47;;;;;;;1.92;1.70;;;18.10;99.90;;;;;;5032327;28;20260;-57
2023/07/20 03:31:14;;;;;;;5.53;1.85;;;18.10;99.90;;;;;;5032736;28;20234;-56
2023/07/20 03:33:43;;;;;;;3.50;1.60;;;18.10;99.90;;;;;;5032293;28;20612;-58
2023/07/20 03:36:10;;;;;;;2.10;1.60;;;18.00;99.90;;;;;;5032137;28;20206;-57
2023/07/20 03:38:37;;;;;;;2.95;1.80;;;18.00;99.90;;;;;;5032185;28;20210;-57
2023/07/20 03:41:03;;;;;;;3.22;1.98;;;18.00;99.90;;;;;;5031926;28;20681;-57
2023/07/20 03:43:30;;;;;;;4.57;2.50;;;18.00;99.90;;;;;;5032224;28;20226;-57
2023/07/20 03:45:57;;;;;;;2.90;1.80;;;18.00;99.90;;;;;;5031842;28;20305;-56
2023/07/20 03:48:25;;;;;;;3.97;1.65;;;18.00;99.90;;;;;;5032065;28;20210;-57
2023/07/20 03:50:55;;;;;;;3.63;1.85;;;18.00;99.90;;;;;;5032453;28;20234;-58
2023/07/20 03:53:22;;;;;;;3.35;1.80;;;18.00;99.90;;;;;;5032052;28;20230;-56
2023/07/20 03:55:49;;;;;;;3.05;1.90;;;17.90;99.90;;;;;;5031641;28;20244;-57
2023/07/20 03:58:16;;;;;;;4.53;2.60;;;18.00;99.90;;;;;;5032153;28;20234;-62
2023/07/20 04:00:46;;;;;;;3.97;2.63;;;18.00;99.90;;;;;;5032083;28;20209;-57
2023/07/20 04:03:13;;;;;;;5.80;2.47;;;18.00;99.90;;;;;;5031912;28;20784;-55
2023/07/20 04:05:39;;;;;;;5.95;2.70;;;18.10;99.90;;;;;;5031699;28;20217;-59
2023/07/20 04:08:08;;;;;;;2.97;2.10;;;18.10;99.90;;;;;;5031183;28;20206;-57
2023/07/20 04:10:35;;;;;;;4.95;2.50;;;18.10;99.90;;;;;;5032077;28;20237;-57
2023/07/20 04:13:02;;;;;;;4.55;2.67;;;18.10;99.90;;;;;;5031782;28;20241;-57
2023/07/20 04:15:28;;;;;;;3.35;2.10;;;18.20;99.90;;;;;;5031835;28;20206;-57
2023/07/20 04:17:56;;;;;;;2.33;1.73;;;18.20;99.90;;;;;;5031435;28;20202;-57
2023/07/20 04:20:23;;;;;;;8.23;4.85;;;18.20;99.90;;;;;;5031568;28;20221;-57
2023/07/20 04:22:49;;;;;;;4.80;2.60;;;18.30;99.90;;;;;;5031198;28;20257;-58
2023/07/20 04:25:18;;;;;;;5.95;2.33;;;18.30;99.90;;;;;;5031435;28;20579;-57
2023/07/20 04:27:45;;;;;;;5.25;2.22;;;18.40;99.90;;;;;;5031320;28;20574;-58
2023/07/20 04:30:12;;;;;;;4.80;1.90;;;18.50;99.90;;;;;;5031524;28;20233;-57
2023/07/20 04:32:46;;;;;;;3.72;2.38;;;18.60;99.90;;;;;;5031053;28;20720;-57
2023/07/20 04:35:18;;;;;;;3.65;2.25;;;18.70;99.90;;;;;;5031485;28;20309;-58
2023/07/20 04:37:46;;;;;;;8.40;5.65;;;18.80;99.90;;;;;;5031454;28;20214;-57
2023/07/20 04:40:13;;;;;;;4.68;2.60;;;18.80;99.90;;;;;;5031622;28;20319;-55
2023/07/20 04:42:41;;;;;;;7.18;2.60;;;18.90;99.90;;;;;;5031264;28;20234;-56
2023/07/20 04:45:09;;;;;;;4.88;2.97;;;19.00;99.90;;;;;;5031321;28;20217;-56
2023/07/20 04:47:36;;;;;;;4.20;2.10;;;19.20;99.90;;;;;;5031068;28;20206;-57
2023/07/20 04:50:02;;;;;;;9.32;5.00;;;19.20;99.90;;;;;;5031468;28;20202;-57
2023/07/20 04:52:29;;;;;;;5.40;2.92;;;19.30;99.90;;;;;;5031532;28;20588;-58
2023/07/20 04:54:56;;;;;;;3.30;2.25;;;19.40;99.90;;;;;;5031972;28;20210;-57
2023/07/20 04:57:24;;;;;;;6.53;2.60;;;19.50;99.90;;;;;;5031458;28;20210;-57
2023/07/20 04:59:53;;;;;;;3.05;1.88;;;19.50;99.90;;;;;;5032071;28;20298;-58
2023/07/20 05:02:19;;;;;;;5.68;2.33;;;19.60;99.90;;;;;;5031296;28;20214;-57
2023/07/20 05:04:46;;;;;;;3.83;2.63;;;19.70;99.90;;;;;;5031246;28;20692;-57
2023/07/20 05:07:13;;;;;;;4.70;2.45;;;19.80;99.90;;;;;;5031088;28;20206;-58
2023/07/20 05:09:40;;;;;;;4.22;2.10;;;19.90;99.90;;;;;;5031338;28;20685;-58
2023/07/20 05:12:07;;;;;;;4.57;2.20;;;20.00;99.90;;;;;;5030997;28;20261;-57
2023/07/20 05:14:34;;;;;;;4.20;2.20;;;19.90;99.90;;;;;;5030567;28;20230;-57
2023/07/20 05:17:02;;;;;;;6.18;3.55;;;20.20;99.90;;;;;;5030521;28;20206;-56
2023/07/20 05:19:29;;;;;;;3.25;2.08;;;20.30;99.90;;;;;;5031230;28;20238;-57
2023/07/20 05:21:55;;;;;;;4.30;2.22;;;20.40;99.90;;;;;;5034701;28;20244;-56
2023/07/20 05:24:22;;;;;;;5.10;2.40;;;20.50;99.90;;;;;;5034679;28;20245;-58
2023/07/20 05:26:49;;;;;;;4.80;2.25;;;20.70;99.80;;;;;;5035015;28;20203;-57
2023/07/20 05:29:16;;;;;;;6.10;2.38;;;20.90;99.40;;;;;;5034639;28;20232;-57
2023/07/20 05:31:42;;;;;;;3.38;2.00;;;21.50;98.80;;;;;;5034262;28;20617;-56
2023/07/20 05:34:10;;;;;;;3.63;1.58;;;22.00;97.70;;;;;;5034526;28;20230;-58
2023/07/20 05:36:37;;;;;;;4.88;3.08;;;22.20;97.10;;;;;;5034433;28;20236;-58
2023/07/20 05:39:04;;;;;;;3.63;1.88;;;22.20;96.80;;;;;;5034428;28;20267;-58
2023/07/20 05:41:31;;;;;;;6.75;1.92;;;23.10;95.90;;;;;;5034312;28;20633;-58
2023/07/20 05:43:58;;;;;;;2.85;1.70;;;24.60;93.00;;;;;;5034315;28;20226;-57
2023/07/20 05:46:25;;;;;;;2.95;1.70;;;26.10;88.70;;;;;;5033919;28;20217;-57
2023/07/20 05:48:51;;;;;;;5.28;1.70;;;27.30;82.10;;;;;;5034416;28;20264;-57
2023/07/20 05:51:19;;;;;;;3.10;2.30;;;28.50;76.60;;;;;;5034286;28;20597;-57
2023/07/20 05:53:46;;;;;;;5.45;2.05;;;29.50;72.10;;;;;;5034350;28;20234;-58
2023/07/20 05:56:15;;;;;;;8.95;1.90;;;30.20;69.20;;;;;;5033964;28;20578;-57
2023/07/20 05:58:41;;;;;;;4.72;1.58;;;31.20;66.40;;;;;;5034471;28;20214;-58
2023/07/20 06:01:08;;;;;;;4.82;1.63;;;32.60;61.90;;;;;;5034379;28;20199;-58
2023/07/20 06:03:35;;;;;;;4.13;1.80;;;33.40;58.50;;;;;;5034005;28;20580;-59
2023/07/20 06:06:03;;;;;;;5.00;1.95;;;33.20;57.50;;;;;;5033969;28;20210;-58
2023/07/20 06:08:32;;;;;;;1.73;1.58;;;32.40;58.00;;;;;;5034228;28;20738;-58
2023/07/20 06:10:58;;;;;;;3.95;2.80;;;31.70;58.90;;;;;;5033798;28;20248;-58
2023/07/20 06:13:25;;;;;;;4.28;1.90;;;31.00;59.70;;;;;;5033879;28;20235;-57
2023/07/20 06:15:52;;;;;;;2.63;1.75;;;30.30;60.60;;;;;;5033456;28;20206;-57
2023/07/20 06:18:20;;;;;;;3.65;1.85;;;29.80;63.70;;;;;;5033783;28;20211;-57
2023/07/20 06:20:50;;;;;;;5.45;1.75;;;30.50;61.90;;;;;;5033689;28;20678;-57
2023/07/20 06:23:16;;;;;;;4.40;1.80;;;32.00;58.90;;;;;;5056672;22;20661;-58
2023/07/20 06:25:45;;;;;;;4.30;1.80;;;33.70;55.50;;;;;;5033414;28;20202;-58
2023/07/20 06:28:11;;;;;;;3.50;1.70;;;34.80;53.10;;;;;;5034099;28;20209;-59
2023/07/20 06:30:38;;;;;;;4.85;1.90;;;34.40;52.70;;;;;;5033873;28;20234;-59
2023/07/20 06:33:05;;;;;;;3.55;1.60;;;32.90;54.50;;;;;;5033889;28;20732;-59
2023/07/20 06:35:31;;;;;;;5.30;1.40;;;31.80;56.30;;;;;;5033818;28;20323;-58
2023/07/20 06:38:00;;;;;;;4.18;1.70;;;32.10;56.10;;;;;;5033656;28;20202;-59
2023/07/20 06:40:27;;;;;;;2.45;1.58;;;32.20;55.80;;;;;;5033760;28;20642;-59
2023/07/20 06:42:55;;;;;;;3.50;1.92;;;31.80;56.00;;;;;;5034006;28;20233;-60
2023/07/20 06:45:21;;;;;;;5.10;1.85;;;31.10;56.90;;;;;;5033827;28;20458;-60
2023/07/20 06:47:48;;;;;;;3.65;1.60;;;30.20;58.90;;;;;;5033793;28;20210;-59
2023/07/20 06:50:15;;;;;;;2.92;1.70;;;30.20;59.10;;;;;;5033490;28;20206;-59
2023/07/20 06:52:42;;;;;;;6.10;1.70;;;30.90;57.90;;;;;;5033201;28;20296;-58
2023/07/20 06:55:09;;;;;;;3.85;2.03;;;32.40;55.60;;;;;;5033795;28;20213;-61
2023/07/20 06:57:36;;;;;;;3.40;1.85;;;34.30;53.00;;;;;;5033422;28;20214;-58
2023/07/20 07:00:06;;;;;;;3.22;1.88;;;35.90;50.10;;;;;;5033688;28;20265;-59
2023/07/20 07:02:34;;;;;;;3.17;1.80;;;37.00;48.20;;;;;;5033543;28;20199;-58
2023/07/20 07:05:01;;;;;;;3.85;1.85;;;38.10;46.10;;;;;;5033207;28;20264;-58
2023/07/20 07:07:27;;;;;;;2.10;1.50;;;38.90;44.90;;;;;;5033031;28;20210;-59
2023/07/20 07:09:54;;;;;;;3.90;1.90;;;39.90;43.40;;;;;;5033567;28;20217;-59
2023/07/20 07:12:21;;;;;;;7.47;4.38;;;40.80;42.70;;;;;;5033379;28;20612;-58
2023/07/20 07:14:48;;;;;;;4.13;1.92;;;41.90;40.50;;;;;;5033161;28;20234;-58
2023/07/20 07:17:16;;;;;;;6.28;1.90;;;42.60;39.80;;;;;;5032680;28;20213;-58
2023/07/20 07:19:43;;;;;;;1.77;1.27;;;43.50;38.30;;;;;;5033181;28;20217;-57
2023/07/20 07:22:09;;;;;;;4.20;1.50;;;43.40;38.10;;;;;;5032870;28;20202;-59
2023/07/20 07:24:36;;;;;;;3.38;1.65;;;43.30;38.00;;;;;;5032948;28;20248;-60
2023/07/20 07:27:04;;;;;;;2.40;1.40;;;43.20;38.20;;;;;;5033006;28;20202;-59
2023/07/20 07:29:31;;;;;;;3.60;1.60;;;41.90;38.90;;;;;;5033357;28;20205;-61
2023/07/20 07:31:58;;;;;;;3.92;1.60;;;39.90;40.90;;;;;;5033195;28;20236;-60
2023/07/20 07:34:26;;;;;;;4.22;1.80;;;38.30;42.80;;;;;;5033239;28;20226;-58
2023/07/20 07:36:53;;;;;;;7.43;1.83;;;37.20;44.00;;;;;;5032497;28;20230;-58
2023/07/20 07:39:20;;;;;;;3.58;1.60;;;37.20;44.10;;;;;;5033263;28;20217;-60
2023/07/20 07:41:47;;;;;;;2.58;1.70;;;36.60;44.90;;;;;;5032900;28;20508;-59
2023/07/20 07:44:13;;;;;;;4.78;2.20;;;35.30;46.40;;;;;;5031988;28;20234;-58
2023/07/20 07:46:41;;;;;;;2.42;1.60;;;34.20;48.20;;;;;;5032241;28;20214;-59
2023/07/20 07:49:08;;;;;;;5.97;1.67;;;33.20;49.70;;;;;;5032594;28;20225;-60
2023/07/20 07:51:36;;;;;;;6.10;1.60;;;32.30;51.10;;;;;;5032822;28;20230;-58
2023/07/20 07:54:03;;;;;;;4.28;1.77;;;31.60;52.10;;;;;;5032670;28;20226;-59
2023/07/20 07:56:29;;;;;;;3.05;1.45;;;31.10;53.00;;;;;;5032291;28;20243;-60
2023/07/20 07:58:56;;;;;;;4.55;1.73;;;30.80;53.90;;;;;;5031977;28;20655;-59
2023/07/20 08:01:23;;;;;;;3.75;1.85;;;30.90;54.30;;;;;;5032307;28;20206;-59
2023/07/20 08:03:50;;;;;;;3.58;1.73;;;30.60;54.20;;;;;;5032306;28;20229;-58
2023/07/20 08:06:17;;;;;;;5.90;1.90;;;30.10;54.90;;;;;;5032000;28;20252;-59
2023/07/20 08:08:45;;;;;;;3.58;1.60;;;29.80;56.00;;;;;;5032278;28;20705;-59
2023/07/20 08:11:12;;;;;;;3.10;1.38;;;30.60;54.90;;;;;;5032418;28;20226;-58
2023/07/20 08:13:39;;;;;;;3.25;1.45;;;32.60;52.70;;;;;;5032165;28;20226;-59
2023/07/20 08:16:06;;;;;;;3.67;1.40;;;34.50;48.90;;;;;;5031961;28;20210;-58
2023/07/20 08:18:32;;;;;;;1.90;1.40;;;36.30;46.20;;;;;;5032119;28;20206;-59
2023/07/20 08:20:59;;;;;;;4.47;1.50;;;37.90;44.10;;;;;;5032394;28;20206;-59
2023/07/20 08:23:27;;;;;;;1.92;1.40;;;37.80;44.00;;;;;;5032019;28;20284;-59
2023/07/20 08:25:55;;;;;;;3.70;1.40;;;37.10;44.70;;;;;;5031849;28;20212;-59
2023/07/20 08:28:22;;;;;;;5.75;1.70;;;35.80;46.00;;;;;;5031634;28;20631;-60
2023/07/20 08:30:51;;;;;;;2.20;1.58;;;35.00;46.90;;;;;;5032079;28;20626;-59
2023/07/20 08:33:20;;;;;;;2.22;1.60;;;34.40;47.90;;;;;;5031609;28;20497;-60
2023/07/20 08:35:47;;;;;;;3.42;1.40;;;34.20;48.30;;;;;;5031538;28;20295;-59
2023/07/20 08:38:14;;;;;;;2.53;1.45;;;33.90;47.90;;;;;;5031659;28;20206;-60
2023/07/20 08:40:42;;;;;;;4.38;1.52;;;32.90;49.30;;;;;;5031879;28;20561;-58
2023/07/20 08:43:11;;;;;;;7.45;1.67;;;31.90;51.70;;;;;;5031520;28;20227;-59
2023/07/20 08:45:40;;;;;;;3.50;1.52;;;31.20;52.60;;;;;;5031619;28;20209;-58
2023/07/20 08:48:08;;;;;;;2.53;1.58;;;31.50;52.60;;;;;;5031429;28;20690;-58
2023/07/20 08:50:35;;;;;;;8.27;1.73;;;31.30;52.70;;;;;;5031654;28;20206;-60
2023/07/20 08:53:03;;;;;;;5.28;1.83;;;31.30;52.20;;;;;;5031342;28;20237;-59
2023/07/20 08:55:31;;;;;;;3.80;1.80;;;31.20;51.70;;;;;;5029369;28;20206;-59
2023/07/20 08:57:59;;;;;;;2.30;1.25;;;31.00;51.80;;;;;;5009754;28;20226;-61
2023/07/20 09:00:29;;;;;;;3.20;1.63;;;30.90;52.20;;;;;;5011676;28;20273;-64
2023/07/20 09:02:56;;;;;;;4.60;1.70;;;30.50;52.80;;;;;;5012158;28;20250;-62
2023/07/20 09:05:25;;;;;;;4.20;1.70;;;30.30;53.50;;;;;;5012254;28;20210;-61
2023/07/20 09:07:53;;;;;;;3.97;1.80;;;30.20;53.70;;;;;;5011709;28;20590;-62
2023/07/20 09:10:21;;;;;;;4.72;1.63;;;29.80;54.30;;;;;;5011658;28;20257;-60
2023/07/20 09:12:48;;;;;;;2.70;1.73;;;29.40;54.70;;;;;;5011893;28;20357;-61
2023/07/20 09:15:17;;;;;;;2.72;1.38;;;29.20;55.50;;;;;;5011874;28;20206;-61
2023/07/20 09:17:48;;;;;;;1.70;1.30;;;29.10;55.70;;;;;;5011408;28;20207;-61
2023/07/20 09:20:16;;;;;;;4.72;1.52;;;29.00;55.20;;;;;;5011762;28;20207;-60
2023/07/20 09:22:43;;;;;;;1.95;1.27;;;28.90;54.80;;;;;;5011697;28;20206;-60
2023/07/20 09:25:12;;;;;;;3.30;1.48;;;28.90;54.00;;;;;;5011508;28;20211;-60
2023/07/20 09:27:41;;;;;;;2.20;1.48;;;28.90;54.40;;;;;;5010923;28;20644;-60
2023/07/20 09:30:11;;;;;;;2.50;1.60;;;28.50;55.50;;;;;;5011443;28;20203;-55
2023/07/20 09:32:43;;;;;;;1.98;1.63;;;28.40;56.20;;;;;;5011691;28;20230;-61
2023/07/20 09:35:15;;;;;;;2.75;1.75;;;28.40;56.30;;;;;;5011674;28;20234;-59
2023/07/20 09:37:48;;;;;;;2.05;1.70;;;28.50;56.30;;;;;;5011433;28;20361;-59
2023/07/20 09:40:18;;;;;;;4.75;1.70;;;28.60;55.50;;;;;;5011795;28;20207;-60
2023/07/20 09:42:44;;;;;;;3.67;1.70;;;28.70;54.50;;;;;;5011585;28;20671;-60
2023/07/20 09:45:12;;;;;;;4.47;2.00;;;28.50;54.50;;;;;;5011756;28;20265;-59
2023/07/20 09:47:39;;;;;;;3.22;1.92;;;28.40;55.00;;;;;;5011354;28;20211;-59
2023/07/20 09:50:10;;;;;;;3.63;2.33;;;28.40;55.40;;;;;;5011365;28;20219;-58
2023/07/20 09:52:40;;;;;;;6.15;2.42;;;28.30;56.60;;;;;;5011660;28;20230;-59
2023/07/20 09:55:08;;;;;;;3.17;1.85;;;28.20;57.30;;;;;;5011415;28;20265;-57
2023/07/20 09:57:36;;;;;;;3.78;1.75;;;28.10;57.10;;;;;;5010893;28;20301;-60
2023/07/20 10:00:07;;;;;;;3.38;1.90;;;28.10;57.40;;;;;;5011153;28;20302;-59
2023/07/20 10:02:37;;;;;;;2.38;1.80;;;28.20;56.90;;;;;;5011301;28;20242;-56
2023/07/20 10:05:05;;;;;;;5.38;1.73;;;28.20;55.90;;;;;;5011748;28;20218;-59
2023/07/20 10:07:34;;;;;;;4.63;1.90;;;28.40;56.60;;;;;;5014474;28;20636;-59
2023/07/20 10:10:05;;;;;;;3.08;1.60;;;28.30;55.80;;;;;;5014279;28;20211;-59
2023/07/20 10:12:32;;;;;;;2.53;1.55;;;28.30;55.80;;;;;;5003495;28;20313;-60
2023/07/20 10:15:11;;;;;;;2.92;1.70;;;28.40;55.50;;;;;;5014125;28;20206;-61
2023/07/20 10:17:41;;;;;;;2.20;1.50;;;28.40;55.40;;;;;;5014514;28;20214;-59
2023/07/20 10:20:10;;;;;;;3.10;1.38;;;28.40;55.20;;;;;;5013985;28;20210;-59
2023/07/20 10:22:37;;;;;;;2.38;1.20;;;28.40;53.90;;;;;;5014412;28;20564;-60
2023/07/20 10:25:08;;;;;;;1.83;1.35;;;28.50;52.20;;;;;;5012471;28;20207;-59
2023/07/20 10:27:35;;;;;;;3.67;1.27;;;28.30;53.20;;;;;;5012295;28;20216;-58
2023/07/20 10:30:03;;;;;;;1.70;1.35;;;28.00;53.10;;;;;;5014464;28;20203;-59
2023/07/20 10:32:30;;;;;;;2.03;1.33;;;27.80;53.50;;;;;;5014029;28;20255;-58
2023/07/20 10:34:57;;;;;;;2.13;1.27;;;27.80;52.80;;;;;;5014265;28;20238;-61
2023/07/20 10:37:54;;;;;;;7.25;1.70;;;27.60;51.80;;;;;;5013770;28;20218;-61
2023/07/20 10:40:33;;;;;;;2.22;1.58;;;27.40;51.70;;;;;;4973010;28;20208;-61
2023/07/20 10:43:02;;;;;;;3.30;1.38;;;27.20;52.20;;;;;;5007883;28;20226;-60
2023/07/20 10:45:36;;;;;;;2.05;1.20;;;27.10;53.00;;;;;;5014104;28;20229;-60
2023/07/20 10:48:06;;;;;;;2.20;1.10;;;27.20;53.30;;;;;;5013458;28;20273;-60
2023/07/20 10:50:34;;;;;;;1.52;1.20;;;27.30;52.60;;;;;;5014925;28;20213;-58
2023/07/20 10:53:12;;;;;;;3.35;1.73;;;27.20;52.10;;;;;;5014069;28;20618;-59
2023/07/20 10:55:41;;;;;;;2.65;1.52;;;27.20;52.10;;;;;;5014500;28;20595;-61
2023/07/20 10:58:09;;;;;;;2.22;1.30;;;27.40;52.60;;;;;;5014182;28;20211;-62
2023/07/20 11:00:36;;;;;;;3.00;1.08;;;27.40;52.00;;;;;;5014256;28;20242;-59
2023/07/20 11:03:03;;;;;;;1.88;1.08;;;27.50;50.40;;;;;;5013267;28;20643;-59
2023/07/20 11:05:37;;;;;;;5.53;1.20;;;27.40;50.20;;;;;;5013425;28;20229;-60
2023/07/20 11:08:11;;;;;;;1.75;1.20;;;27.40;50.30;;;;;;5013603;28;20210;-59
2023/07/20 11:10:40;;;;;;;1.85;1.35;;;27.30;50.50;;;;;;5013623;28;20211;-59
2023/07/20 11:13:24;;;;;;;1.45;1.15;;;27.20;50.70;;;;;;5013328;28;20708;-58
2023/07/20 11:16:04;;;;;;;2.00;1.33;;;27.10;50.40;;;;;;5013431;28;20207;-60
2023/07/20 11:18:34;;;;;;;3.15;1.10;;;27.10;50.60;;;;;;5013702;28;20211;-59
2023/07/20 11:21:01;;;;;;;3.40;1.27;;;27.30;49.80;;;;;;5013691;28;20207;-60
2023/07/20 11:23:30;;;;;;;1.20;1.00;;;27.40;50.60;;;;;;5013622;28;20322;-59
2023/07/20 11:26:00;;;;;;;2.85;1.08;;;27.60;50.80;;;;;;5013323;28;20703;-59
2023/07/20 11:28:27;;;;;;;3.63;1.08;;;27.80;50.70;;;;;;5011995;28;20206;-63
2023/07/20 11:30:54;;;;;;;1.52;1.05;;;28.00;50.30;;;;;;5014182;28;20199;-62
2023/07/20 11:33:21;;;;;;;1.60;1.10;;;28.10;49.60;;;;;;5013232;28;20254;-62
2023/07/20 11:35:50;;;;;;;1.58;1.00;;;28.10;48.00;;;;;;5012830;28;20210;-61
2023/07/20 11:38:17;;;;;;;1.65;1.10;;;28.10;48.60;;;;;;5013103;28;20214;-62
2023/07/20 11:40:45;;;;;;;1.48;1.10;;;28.10;47.80;;;;;;5013637;28;20671;-63
2023/07/20 11:43:15;;;;;;;1.67;1.00;;;27.70;45.50;;;;;;5013311;28;20242;-59
2023/07/20 11:45:42;;;;;;;1.70;0.88;;;27.40;46.70;;;;;;5013033;28;20213;-60
2023/07/20 11:48:15;;;;;;;1.67;1.02;;;27.30;48.40;;;;;;5013028;28;20202;-61
2023/07/20 11:50:42;;;;;;;1.80;0.98;;;27.60;48.90;;;;;;5012606;28;20211;-59
2023/07/20 11:53:09;;;;;;;5.05;1.33;;;27.90;49.90;;;;;;5012346;28;20683;-60
2023/07/20 11:55:37;;;;;;;3.95;1.48;;;28.10;50.30;;;;;;5012367;28;20298;-59
2023/07/20 11:58:05;;;;;;;3.67;1.65;;;28.10;50.00;;;;;;5012315;28;20883;-61
2023/07/20 12:00:33;;;;;;;4.28;0.95;;;28.20;49.40;;;;;;5013218;28;20203;-60
2023/07/20 12:03:00;;;;;;;1.88;1.20;;;28.20;49.50;;;;;;5012767;28;20242;-59
2023/07/20 12:05:27;;;;;;;1.83;1.13;;;28.30;48.70;;;;;;5012336;28;20294;-60
2023/07/20 12:07:55;;;;;;;3.53;1.52;;;28.00;48.20;;;;;;5012313;28;20255;-60
2023/07/20 12:10:27;;;;;;;1.83;0.93;;;27.90;49.30;;;;;;5012343;28;20679;-60
2023/07/20 12:12:54;;;;;;;2.08;1.15;;;28.00;48.50;;;;;;5012203;28;20231;-61
2023/07/20 12:15:23;;;;;;;1.48;1.20;;;27.90;47.70;;;;;;5012568;28;20305;-61
2023/07/20 12:17:56;;;;;;;2.65;1.00;;;27.80;48.00;;;;;;5012206;28;20233;-61
2023/07/20 12:20:27;;;;;;;1.88;1.15;;;28.00;48.50;;;;;;5012450;28;20207;-60
2023/07/20 12:25:22;;;;;;;2.53;1.10;;;28.30;47.90;;;;;;5050243;28;20206;-58
2023/07/20 12:27:49;;;;;;;2.00;1.17;;;28.40;47.40;;;;;;5051526;28;20201;-59
2023/07/20 12:30:16;;;;;;;1.77;1.05;;;28.40;46.60;;;;;;5050885;28;20213;-59
2023/07/20 12:32:43;;;;;;;1.60;1.15;;;28.10;46.80;;;;;;5051502;28;20308;-59
2023/07/20 12:35:14;;;;;;;1.73;0.90;;;27.90;47.10;;;;;;5051353;28;20226;-63
2023/07/20 12:37:41;;;;;;;1.30;0.90;;;27.60;47.20;;;;;;5051288;28;20289;-63
2023/07/20 12:40:10;;;;;;;4.70;1.20;;;27.50;48.20;;;;;;5050837;28;20205;-62
2023/07/20 12:42:38;;;;;;;3.22;0.90;;;27.70;49.10;;;;;;5051266;28;20205;-62
2023/07/20 12:45:05;;;;;;;2.03;1.08;;;27.70;48.40;;;;;;5050938;28;20314;-60
2023/07/20 12:47:32;;;;;;;3.63;1.40;;;27.80;49.50;;;;;;5051118;28;20212;-61
2023/07/20 12:49:59;;;;;;;1.65;1.02;;;27.90;48.50;;;;;;5051914;28;20522;-61
2023/07/20 12:52:27;;;;;;;1.80;1.02;;;28.20;48.70;;;;;;5051200;28;20212;-60
2023/07/20 12:54:53;;;;;;;3.40;1.00;;;28.30;48.10;;;;;;5051261;28;20701;-62